Time;durP1;ratioP1;P1;durP2;ratioP2;P2;SDS_P1;SDS_P2;PMS_P1;PMS_P2;Temp;Humidity;BMP_temperature;BMP_pressure;BME280_temperature;BME280_humidity;BME280_pressure;Samples;Min_cycle;Max_cycle;Signal;HPM_P1;HPM_P2
2022/04/26 03:37:51;;;;;;;;;;;7.60;99.90;;;;;;5032065;28;19929;-78
2022/04/26 03:40:17;;;;;;;;;;;7.60;99.90;;;;;;5029896;28;19979;-79
2022/04/26 03:42:44;;;;;;;;;;;7.60;99.90;;;;;;5048871;28;19940;-80
2022/04/26 03:45:11;;;;;;;;;;;7.60;99.90;;;;;;5044356;28;19925;-85
2022/04/26 03:47:37;;;;;;;;;;;7.50;99.90;;;;;;5034204;28;19932;-80
2022/04/26 03:50:04;;;;;;;;;;;7.60;99.90;;;;;;5045934;28;19929;-80
2022/04/26 03:52:30;;;;;;;;;;;7.70;99.90;;;;;;5029204;28;19979;-80
2022/04/26 03:54:57;;;;;;;;;;;7.70;99.90;;;;;;5033245;28;19924;-80
2022/04/26 03:57:23;;;;;;;;;;;7.70;99.90;;;;;;5041242;28;19925;-80
2022/04/26 03:59:50;;;;;;;;;;;7.70;99.90;;;;;;5040217;28;19932;-80
2022/04/26 04:02:16;;;;;;;;;;;7.70;99.90;;;;;;5032041;28;19924;-80
2022/04/26 04:04:43;;;;;;;;;;;7.70;99.90;;;;;;5048890;28;19924;-80
2022/04/26 04:07:09;;;;;;;;;;;7.70;99.90;;;;;;5025791;28;20504;-85
2022/04/26 04:09:36;;;;;;;;;;;7.70;99.90;;;;;;5026298;28;19925;-80
2022/04/26 04:12:02;;;;;;;;;;;7.70;99.90;;;;;;5030175;28;19973;-80
2022/04/26 04:14:29;;;;;;;;;;;7.70;99.90;;;;;;5047646;28;19939;-79
2022/04/26 04:16:57;;;;;;;;;;;7.80;99.90;;;;;;5042700;28;19925;-80
2022/04/26 04:19:25;;;;;;;;;;;7.80;99.90;;;;;;5033307;28;19932;-80
2022/04/26 04:21:53;;;;;;;;;;;7.70;99.90;;;;;;5032062;28;19979;-82
2022/04/26 04:24:19;;;;;;;;;;;7.80;99.90;;;;;;5023549;28;19929;-81
2022/04/26 04:26:46;;;;;;;;;;;7.90;99.90;;;;;;5029653;28;19925;-80
2022/04/26 04:29:12;;;;;;;;;;;7.90;99.90;;;;;;5051546;28;19932;-84
2022/04/26 04:31:39;;;;;;;;;;;7.90;99.90;;;;;;5025995;28;19928;-80
2022/04/26 04:34:06;;;;;;;;;;;8.00;99.90;;;;;;5050281;28;19931;-80
2022/04/26 04:36:32;;;;;;;;;;;8.00;99.90;;;;;;5038160;28;19927;-79
2022/04/26 04:38:59;;;;;;;;;;;8.00;99.90;;;;;;5019615;28;19932;-80
2022/04/26 04:41:25;;;;;;;;;;;8.00;99.90;;;;;;5035692;28;19925;-80
2022/04/26 04:43:52;;;;;;;;;;;8.00;99.90;;;;;;5055103;28;19936;-80
2022/04/26 04:46:18;;;;;;;;;;;8.10;99.90;;;;;;5036313;28;19932;-80
2022/04/26 04:48:45;;;;;;;;;;;8.00;99.90;;;;;;5037540;28;19925;-80
2022/04/26 04:51:11;;;;;;;;;;;8.00;99.90;;;;;;5035271;28;19960;-83
2022/04/26 04:53:38;;;;;;;;;;;8.00;99.90;;;;;;5054303;28;19925;-79
2022/04/26 04:56:05;;;;;;;;;;;8.10;99.90;;;;;;5050672;28;19928;-79
2022/04/26 04:58:32;;;;;;;;;;;8.10;99.90;;;;;;5045932;28;19925;-78
2022/04/26 05:00:58;;;;;;;;;;;8.20;99.90;;;;;;5022114;28;19964;-79
2022/04/26 05:03:25;;;;;;;;;;;8.20;99.90;;;;;;5025243;28;19929;-80
2022/04/26 05:05:52;;;;;;;;;;;8.20;99.90;;;;;;5027204;28;19932;-80
2022/04/26 05:08:18;;;;;;;;;;;8.30;99.90;;;;;;5033989;28;19935;-80
2022/04/26 05:10:45;;;;;;;;;;;8.30;99.90;;;;;;5031832;28;19995;-80
2022/04/26 05:13:11;;;;;;;;;;;8.30;99.90;;;;;;5033198;28;20360;-79
2022/04/26 05:15:38;;;;;;;;;;;8.40;99.90;;;;;;5048593;28;20372;-80
2022/04/26 05:18:05;;;;;;;;;;;8.40;99.90;;;;;;5046824;28;19948;-80
2022/04/26 05:20:31;;;;;;;;;;;8.50;99.90;;;;;;5033828;28;20352;-80
2022/04/26 05:25:42;;;;;;;;;;;8.60;99.90;;;;;;5049790;28;20430;-79
2022/04/26 05:28:08;;;;;;;;;;;8.60;99.90;;;;;;5033399;28;19925;-78
2022/04/26 05:30:35;;;;;;;;;;;8.70;99.90;;;;;;5053493;28;19937;-80
2022/04/26 05:33:01;;;;;;;;;;;8.80;99.90;;;;;;5032877;28;19929;-80
2022/04/26 05:35:28;;;;;;;;;;;8.90;99.90;;;;;;5034233;28;20008;-78
2022/04/26 05:37:55;;;;;;;;;;;8.80;99.90;;;;;;5033949;28;19982;-83
2022/04/26 05:40:21;;;;;;;;;;;8.90;99.90;;;;;;5026961;28;19965;-80
2022/04/26 05:42:48;;;;;;;;;;;8.90;99.90;;;;;;5036059;28;20380;-81
2022/04/26 05:45:14;;;;;;;;;;;9.00;99.90;;;;;;5033066;28;19934;-81
2022/04/26 05:47:41;;;;;;;;;;;9.00;99.90;;;;;;5035046;28;19932;-81
2022/04/26 05:50:07;;;;;;;;;;;9.10;99.90;;;;;;5062335;28;19924;-82
2022/04/26 05:52:34;;;;;;;;;;;9.20;99.90;;;;;;5033215;28;19925;-81
2022/04/26 05:55:00;;;;;;;;;;;9.30;99.90;;;;;;5037310;28;19929;-81
2022/04/26 05:57:27;;;;;;;;;;;9.30;99.90;;;;;;5034602;28;19947;-81
2022/04/26 05:59:54;;;;;;;;;;;9.30;99.90;;;;;;5048122;28;19929;-81
2022/04/26 06:02:20;;;;;;;;;;;9.40;99.90;;;;;;5054201;28;19928;-81
2022/04/26 06:04:47;;;;;;;;;;;9.20;99.90;;;;;;5035787;28;19925;-81
2022/04/26 06:07:13;;;;;;;;;;;9.20;99.90;;;;;;5037051;28;19929;-81
2022/04/26 06:09:40;;;;;;;;;;;9.10;99.90;;;;;;5030677;28;19981;-81
2022/04/26 06:12:07;;;;;;;;;;;9.20;99.90;;;;;;5030950;28;19964;-80
2022/04/26 06:14:33;;;;;;;;;;;9.10;99.90;;;;;;5030569;28;19925;-81
2022/04/26 06:17:00;;;;;;;;;;;9.00;99.90;;;;;;5051320;28;19982;-79
2022/04/26 06:19:26;;;;;;;;;;;9.10;99.90;;;;;;5052466;28;19925;-80
2022/04/26 06:21:53;;;;;;;;;;;9.10;99.90;;;;;;5043367;28;19963;-80
2022/04/26 06:24:20;;;;;;;;;;;9.10;99.90;;;;;;5030078;28;20283;-88
2022/04/26 06:26:46;;;;;;;;;;;9.20;99.90;;;;;;5051403;28;19925;-82
2022/04/26 06:29:13;;;;;;;;;;;9.20;99.90;;;;;;5035468;28;20390;-81
2022/04/26 06:31:39;;;;;;;;;;;9.30;99.90;;;;;;5037454;28;19928;-80
2022/04/26 06:34:06;;;;;;;;;;;9.30;99.90;;;;;;5035997;28;19982;-81
2022/04/26 06:36:32;;;;;;;;;;;9.30;99.90;;;;;;5057777;28;20015;-84
2022/04/26 06:38:59;;;;;;;;;;;9.40;99.90;;;;;;5037496;28;19931;-81
2022/04/26 06:41:25;;;;;;;;;;;9.50;99.90;;;;;;5036523;28;19925;-81
2022/04/26 06:43:52;;;;;;;;;;;9.50;99.90;;;;;;5054179;28;19924;-82
2022/04/26 06:46:18;;;;;;;;;;;9.70;99.90;;;;;;5037109;28;19924;-81
2022/04/26 06:48:49;;;;;;;;;;;9.70;99.90;;;;;;5056499;28;20390;-81
2022/04/26 06:51:15;;;;;;;;;;;9.70;99.90;;;;;;5043566;28;19968;-81
2022/04/26 06:53:42;;;;;;;;;;;9.80;99.90;;;;;;5028958;28;19925;-84
2022/04/26 06:56:08;;;;;;;;;;;9.70;99.90;;;;;;5025902;28;19995;-81
2022/04/26 06:58:35;;;;;;;;;;;9.60;99.90;;;;;;5026897;28;20262;-81
2022/04/26 07:01:01;;;;;;;;;;;9.60;99.90;;;;;;5038088;28;19931;-82
2022/04/26 07:03:28;;;;;;;;;;;9.60;99.90;;;;;;5031704;28;19932;-81
2022/04/26 07:05:55;;;;;;;;;;;9.50;99.90;;;;;;5056300;28;19940;-81
2022/04/26 07:08:21;;;;;;;;;;;9.50;99.90;;;;;;5049691;28;19936;-89
2022/04/26 07:10:48;;;;;;;;;;;9.50;99.90;;;;;;5039659;28;19925;-86
2022/04/26 07:13:18;;;;;;;;;;;9.40;99.90;;;;;;5035305;28;19931;-81
2022/04/26 07:15:45;;;;;;;;;;;9.40;99.90;;;;;;5024782;28;20401;-81
2022/04/26 07:18:12;;;;;;;;;;;9.40;99.90;;;;;;5033674;28;19936;-81
2022/04/26 07:20:38;;;;;;;;;;;9.50;99.90;;;;;;5022228;28;19925;-79
2022/04/26 07:23:05;;;;;;;;;;;9.50;99.90;;;;;;5034625;28;19988;-79
2022/04/26 07:25:31;;;;;;;;;;;9.40;99.90;;;;;;5021806;28;19925;-80
2022/04/26 07:27:58;;;;;;;;;;;9.50;99.90;;;;;;5052031;28;19932;-80
2022/04/26 07:30:32;;;;;;;;;;;9.50;99.90;;;;;;5033957;28;20364;-86
2022/04/26 07:35:42;;;;;;;;;;;9.50;99.90;;;;;;5025679;28;20125;-80
2022/04/26 07:38:09;;;;;;;;;;;9.50;99.90;;;;;;5040278;28;19925;-79
2022/04/26 07:40:35;;;;;;;;;;;9.50;99.90;;;;;;5033374;28;19947;-84
2022/04/26 07:43:03;;;;;;;;;;;9.50;99.90;;;;;;5050951;28;20446;-80
2022/04/26 07:45:30;;;;;;;;;;;9.60;99.90;;;;;;5041627;28;20327;-80
2022/04/26 07:47:56;;;;;;;;;;;9.60;99.90;;;;;;5041346;28;19932;-79
2022/04/26 07:50:23;;;;;;;;;;;9.70;99.90;;;;;;5040538;28;19933;-79
2022/04/26 07:52:49;;;;;;;;;;;9.60;99.90;;;;;;5027299;28;19925;-79
2022/04/26 07:55:16;;;;;;;;;;;9.70;99.90;;;;;;5050908;28;19932;-83
2022/04/26 07:57:43;;;;;;;;;;;9.80;99.90;;;;;;5014618;28;19931;-78
2022/04/26 08:00:09;;;;;;;;;;;9.70;99.90;;;;;;5048054;28;19932;-80
2022/04/26 08:02:36;;;;;;;;;;;9.70;99.90;;;;;;5032093;28;20360;-80
2022/04/26 08:05:02;;;;;;;;;;;9.80;99.90;;;;;;5037599;28;21836;-80
2022/04/26 08:07:29;;;;;;;;;;;9.70;99.90;;;;;;5024296;28;19924;-81
2022/04/26 08:09:56;;;;;;;;;;;9.80;99.90;;;;;;5037641;28;19925;-80
2022/04/26 08:12:22;;;;;;;;;;;9.90;99.90;;;;;;5033345;28;19925;-79
2022/04/26 08:14:49;;;;;;;;;;;9.80;99.90;;;;;;5054450;28;19929;-78
2022/04/26 08:17:16;;;;;;;;;;;9.80;99.90;;;;;;5036931;28;19925;-81
2022/04/26 08:19:42;;;;;;;;;;;9.90;99.90;;;;;;5018333;28;19975;-80
2022/04/26 08:22:09;;;;;;;;;;;9.90;99.90;;;;;;5050379;28;19925;-80
2022/04/26 08:27:26;;;;;;;;;;;9.90;99.90;;;;;;5034046;28;20478;-79
2022/04/26 08:29:52;;;;;;;;;;;10.00;99.90;;;;;;5029986;28;20355;-80
2022/04/26 08:32:19;;;;;;;;;;;10.10;99.90;;;;;;5036349;28;20315;-80
2022/04/26 08:34:46;;;;;;;;;;;10.10;99.90;;;;;;5028781;28;20276;-83
2022/04/26 08:37:12;;;;;;;;;;;10.20;99.90;;;;;;5036658;28;19932;-80
2022/04/26 08:39:39;;;;;;;;;;;10.20;99.90;;;;;;5036902;28;19925;-79
2022/04/26 08:42:06;;;;;;;;;;;10.20;99.90;;;;;;5037306;28;20356;-80
2022/04/26 08:44:32;;;;;;;;;;;10.40;99.90;;;;;;5036305;28;19975;-80
2022/04/26 08:52:27;;;;;;;;;;;10.90;99.90;;;;;;5018987;28;19925;-83
2022/04/26 08:54:54;;;;;;;;;;;11.00;99.90;;;;;;5034695;28;19932;-82
2022/04/26 08:57:20;;;;;;;;;;;11.00;99.90;;;;;;5041122;28;19925;-79
2022/04/26 08:59:47;;;;;;;;;;;10.90;99.90;;;;;;5036796;28;19925;-79
2022/04/26 09:02:14;;;;;;;;;;;10.90;99.90;;;;;;5033243;28;19925;-79
2022/04/26 09:04:41;;;;;;;;;;;11.00;99.90;;;;;;5053540;28;19924;-79
2022/04/26 09:07:08;;;;;;;;;;;11.10;99.90;;;;;;5042992;28;19925;-78
2022/04/26 09:09:35;;;;;;;;;;;11.20;99.90;;;;;;5031689;28;19928;-80
2022/04/26 09:12:02;;;;;;;;;;;11.30;99.90;;;;;;5031028;28;19994;-81
2022/04/26 09:14:29;;;;;;;;;;;11.40;99.90;;;;;;5027569;28;19925;-79
2022/04/26 09:16:55;;;;;;;;;;;11.40;99.90;;;;;;5054002;28;20000;-80
2022/04/26 09:19:22;;;;;;;;;;;11.30;99.90;;;;;;5054687;28;19975;-78
2022/04/26 09:21:48;;;;;;;;;;;11.20;99.90;;;;;;5034721;28;19925;-78
2022/04/26 09:24:16;;;;;;;;;;;11.20;99.90;;;;;;5047222;28;19924;-80
2022/04/26 09:26:42;;;;;;;;;;;11.20;99.90;;;;;;5034669;28;20019;-79
2022/04/26 09:29:09;;;;;;;;;;;11.10;99.90;;;;;;5026058;28;19971;-79
2022/04/26 09:31:35;;;;;;;;;;;11.20;99.90;;;;;;5045389;28;19931;-80
2022/04/26 09:34:05;;;;;;;;;;;11.40;99.90;;;;;;5047059;28;19925;-80
2022/04/26 09:36:35;;;;;;;;;;;11.60;99.90;;;;;;5025436;28;20364;-85
2022/04/26 09:39:01;;;;;;;;;;;11.80;99.90;;;;;;5053733;28;19951;-83
2022/04/26 09:41:28;;;;;;;;;;;12.00;99.90;;;;;;5031373;28;20387;-79
2022/04/26 09:43:54;;;;;;;;;;;12.00;99.90;;;;;;5035317;28;19925;-78
2022/04/26 09:46:21;;;;;;;;;;;11.90;99.90;;;;;;5053713;28;19932;-80
2022/04/26 09:48:48;;;;;;;;;;;11.90;99.90;;;;;;5032180;28;19925;-79
2022/04/26 09:51:16;;;;;;;;;;;12.00;99.90;;;;;;5029382;28;19932;-81
2022/04/26 09:53:43;;;;;;;;;;;11.90;99.90;;;;;;5037051;28;20015;-80
2022/04/26 09:56:09;;;;;;;;;;;11.80;99.90;;;;;;5049291;28;19932;-80
2022/04/26 09:58:37;;;;;;;;;;;11.90;99.90;;;;;;5031842;28;19948;-81
2022/04/26 10:01:05;;;;;;;;;;;12.00;99.90;;;;;;5038316;28;20046;-81
2022/04/26 10:03:31;;;;;;;;;;;12.10;99.90;;;;;;5061248;28;19967;-80
2022/04/26 10:05:58;;;;;;;;;;;12.30;99.90;;;;;;5026540;28;19925;-81
2022/04/26 10:08:24;;;;;;;;;;;12.40;99.90;;;;;;5037575;28;19925;-80
2022/04/26 10:10:51;;;;;;;;;;;12.30;99.90;;;;;;5030328;28;19932;-81
2022/04/26 10:13:32;;;;;;;;;;;12.20;99.90;;;;;;5045569;28;20769;-81
2022/04/26 10:15:59;;;;;;;;;;;12.20;99.90;;;;;;5030739;28;20038;-80
2022/04/26 10:18:26;;;;;;;;;;;12.10;99.90;;;;;;5027794;28;19929;-81
2022/04/26 10:20:52;;;;;;;;;;;12.20;99.90;;;;;;5046775;28;19935;-81
2022/04/26 10:23:19;;;;;;;;;;;12.40;99.90;;;;;;5024520;28;20532;-82
2022/04/26 10:25:45;;;;;;;;;;;12.30;99.90;;;;;;5052460;28;19928;-81
2022/04/26 10:28:12;;;;;;;;;;;12.30;99.90;;;;;;5035498;28;19929;-81
2022/04/26 10:30:38;;;;;;;;;;;12.40;99.90;;;;;;5025551;28;19924;-82
2022/04/26 10:33:05;;;;;;;;;;;12.50;99.90;;;;;;5033261;28;19925;-80
2022/04/26 10:35:32;;;;;;;;;;;12.60;99.90;;;;;;5049389;28;19936;-81
2022/04/26 10:37:59;;;;;;;;;;;12.40;99.90;;;;;;5029335;28;19929;-82
2022/04/26 10:40:26;;;;;;;;;;;12.30;99.90;;;;;;5063944;28;19932;-80
2022/04/26 10:42:52;;;;;;;;;;;12.40;99.90;;;;;;5032372;28;19925;-81
2022/04/26 10:45:19;;;;;;;;;;;12.50;99.90;;;;;;5022130;28;19929;-81
2022/04/26 10:47:45;;;;;;;;;;;12.40;99.90;;;;;;5025720;28;19925;-81
2022/04/26 10:50:13;;;;;;;;;;;12.50;99.90;;;;;;5031925;28;19929;-81
2022/04/26 10:52:40;;;;;;;;;;;12.50;99.90;;;;;;5028212;28;19925;-85
2022/04/26 10:55:07;;;;;;;;;;;12.40;99.90;;;;;;5033143;28;19979;-81
2022/04/26 10:57:34;;;;;;;;;;;12.50;99.90;;;;;;5034915;28;19929;-80
2022/04/26 11:00:00;;;;;;;;;;;12.40;99.90;;;;;;5034202;28;19972;-80
2022/04/26 11:02:27;;;;;;;;;;;12.40;99.90;;;;;;5033319;28;19925;-81
2022/04/26 11:04:53;;;;;;;;;;;12.50;99.90;;;;;;5030888;28;19925;-81
2022/04/26 11:07:25;;;;;;;;;;;12.60;99.90;;;;;;5051970;28;20379;-81
2022/04/26 11:09:53;;;;;;;;;;;12.50;99.70;;;;;;5051710;28;19971;-81
2022/04/26 11:12:19;;;;;;;;;;;12.50;99.90;;;;;;5029915;28;19932;-81
2022/04/26 11:14:46;;;;;;;;;;;12.60;99.90;;;;;;5039709;28;20328;-81
2022/04/26 11:17:12;;;;;;;;;;;12.60;99.90;;;;;;5034146;28;20471;-81
2022/04/26 11:19:40;;;;;;;;;;;12.70;99.90;;;;;;5018914;28;19932;-80
2022/04/26 11:22:06;;;;;;;;;;;12.80;99.90;;;;;;5028111;28;20410;-80
2022/04/26 11:30:02;;;;;;;;;;;13.30;99.60;;;;;;5021554;28;20033;-81
2022/04/26 11:32:28;;;;;;;;;;;13.20;98.60;;;;;;5033339;28;19925;-81
2022/04/26 11:34:55;;;;;;;;;;;12.90;98.20;;;;;;5026462;28;19972;-81
2022/04/26 11:37:21;;;;;;;;;;;13.00;98.30;;;;;;5043721;28;20015;-81
2022/04/26 11:39:48;;;;;;;;;;;12.90;98.60;;;;;;5033717;28;19932;-81
2022/04/26 11:42:16;;;;;;;;;;;12.90;99.60;;;;;;5045190;28;19925;-80
2022/04/26 11:44:42;;;;;;;;;;;13.10;98.80;;;;;;5029841;28;19925;-86
2022/04/26 11:47:13;;;;;;;;;;;13.00;98.70;;;;;;5034045;28;19925;-81
2022/04/26 11:49:39;;;;;;;;;;;13.00;99.00;;;;;;5030568;28;19925;-81
2022/04/26 11:52:06;;;;;;;;;;;13.00;99.80;;;;;;5025744;28;19936;-81
2022/04/26 11:54:32;;;;;;;;;;;13.10;99.50;;;;;;5017033;28;19932;-81
2022/04/26 11:56:59;;;;;;;;;;;13.20;98.90;;;;;;5033057;28;19925;-81
2022/04/26 11:59:25;;;;;;;;;;;13.20;98.40;;;;;;5026509;28;19925;-81
2022/04/26 12:01:52;;;;;;;;;;;13.10;98.10;;;;;;5023409;28;19924;-81
2022/04/26 12:04:18;;;;;;;;;;;13.20;98.80;;;;;;5051434;28;19935;-81
2022/04/26 12:06:45;;;;;;;;;;;13.30;98.20;;;;;;5027754;28;19932;-85
2022/04/26 12:09:14;;;;;;;;;;;13.20;98.10;;;;;;5051600;28;19968;-81
2022/04/26 12:11:43;;;;;;;;;;;13.40;98.90;;;;;;5033518;28;20359;-81
2022/04/26 12:14:11;;;;;;;;;;;13.40;97.80;;;;;;5026724;28;20360;-81
2022/04/26 12:16:38;;;;;;;;;;;13.30;97.70;;;;;;5029440;28;19976;-80
2022/04/26 12:19:04;;;;;;;;;;;13.50;97.70;;;;;;5024602;28;19924;-81
2022/04/26 12:21:31;;;;;;;;;;;13.60;96.70;;;;;;5033340;28;19929;-81
2022/04/26 12:23:57;;;;;;;;;;;13.60;96.40;;;;;;5032846;28;19940;-82
2022/04/26 12:26:24;;;;;;;;;;;13.40;96.60;;;;;;5025404;28;19929;-80
2022/04/26 12:28:51;;;;;;;;;;;13.60;96.70;;;;;;5022557;28;19926;-81
2022/04/26 12:31:17;;;;;;;;;;;13.70;96.20;;;;;;5023142;28;20368;-80
2022/04/26 12:33:44;;;;;;;;;;;13.70;95.30;;;;;;5026059;28;19929;-82
2022/04/26 12:36:10;;;;;;;;;;;13.30;95.00;;;;;;5032322;28;19925;-81
2022/04/26 12:38:37;;;;;;;;;;;13.40;96.20;;;;;;5024783;28;19924;-81
2022/04/26 12:41:03;;;;;;;;;;;13.40;94.90;;;;;;5022966;28;19994;-81
2022/04/26 12:43:31;;;;;;;;;;;13.40;94.20;;;;;;5034736;28;19929;-81
2022/04/26 12:45:57;;;;;;;;;;;13.70;94.00;;;;;;5035611;28;19925;-81
2022/04/26 12:51:08;;;;;;;;;;;13.60;92.00;;;;;;5038683;28;20367;-82
2022/04/26 12:53:34;;;;;;;;;;;13.70;90.30;;;;;;5043250;28;19925;-82
2022/04/26 12:56:01;;;;;;;;;;;13.70;88.50;;;;;;5021460;28;19926;-83
2022/04/26 12:58:27;;;;;;;;;;;13.70;86.80;;;;;;5026893;28;19929;-82
2022/04/26 13:00:54;;;;;;;;;;;13.70;89.80;;;;;;5042053;28;19929;-82
2022/04/26 13:03:21;;;;;;;;;;;13.90;87.90;;;;;;5030566;28;19924;-80
2022/04/26 13:05:49;;;;;;;;;;;13.80;86.70;;;;;;5027736;28;19969;-87
2022/04/26 13:08:15;;;;;;;;;;;13.90;87.00;;;;;;5030858;28;19924;-81
2022/04/26 13:10:42;;;;;;;;;;;14.00;88.40;;;;;;5026038;28;19933;-81
2022/04/26 13:13:08;;;;;;;;;;;14.00;87.90;;;;;;5052598;28;19935;-87
2022/04/26 13:15:35;;;;;;;;;;;13.90;90.10;;;;;;5020350;28;19925;-85
2022/04/26 13:18:01;;;;;;;;;;;14.00;86.30;;;;;;5022706;28;20020;-85
2022/04/26 13:20:28;;;;;;;;;;;14.00;86.80;;;;;;5037329;28;19928;-85
2022/04/26 13:22:54;;;;;;;;;;;14.00;86.70;;;;;;5042841;28;19928;-86
2022/04/26 13:25:21;;;;;;;;;;;13.70;90.00;;;;;;5033208;28;19925;-85
2022/04/26 13:27:48;;;;;;;;;;;13.70;90.20;;;;;;5054863;28;19931;-84
2022/04/26 13:30:15;;;;;;;;;;;13.90;91.50;;;;;;5035950;28;20237;-85
2022/04/26 13:32:41;;;;;;;;;;;14.00;89.80;;;;;;5030257;28;19925;-85
2022/04/26 13:35:08;;;;;;;;;;;14.00;91.30;;;;;;5021323;28;20382;-86
2022/04/26 13:37:35;;;;;;;;;;;14.00;89.80;;;;;;5028555;28;19928;-86
2022/04/26 13:40:01;;;;;;;;;;;13.80;90.20;;;;;;5032299;28;19928;-85
2022/04/26 13:42:30;;;;;;;;;;;13.80;89.80;;;;;;5034873;28;19924;-85
2022/04/26 13:44:58;;;;;;;;;;;13.80;90.00;;;;;;5022117;28;19975;-86
2022/04/26 13:47:24;;;;;;;;;;;13.80;90.20;;;;;;5036157;28;19929;-85
2022/04/26 13:49:51;;;;;;;;;;;13.80;90.10;;;;;;5034533;28;19925;-86
2022/04/26 13:52:20;;;;;;;;;;;13.70;90.80;;;;;;5028839;28;19925;-85
2022/04/26 13:54:46;;;;;;;;;;;13.70;91.80;;;;;;5037961;28;19925;-85
2022/04/26 13:57:13;;;;;;;;;;;13.80;92.10;;;;;;5043513;28;19921;-84
2022/04/26 13:59:39;;;;;;;;;;;13.80;91.70;;;;;;5021253;28;19925;-85
2022/04/26 14:02:06;;;;;;;;;;;13.80;92.00;;;;;;5044258;28;20288;-84
2022/04/26 14:04:32;;;;;;;;;;;13.80;91.60;;;;;;5033855;28;19924;-86
2022/04/26 14:06:59;;;;;;;;;;;13.70;91.10;;;;;;5050747;28;20011;-83
2022/04/26 14:09:25;;;;;;;;;;;13.40;92.40;;;;;;5029721;28;19925;-84
2022/04/26 14:11:53;;;;;;;;;;;13.60;92.00;;;;;;5031625;28;19948;-86
2022/04/26 14:22:33;;;;;;;;;;;13.80;91.90;;;;;;5030310;28;20019;-87
2022/04/26 14:25:00;;;;;;;;;;;13.80;90.70;;;;;;5033086;28;20443;-86
2022/04/26 14:27:27;;;;;;;;;;;13.80;91.80;;;;;;5034565;28;19932;-85
2022/04/26 14:29:53;;;;;;;;;;;13.70;92.70;;;;;;5035218;28;19931;-86
2022/04/26 14:32:20;;;;;;;;;;;13.90;91.70;;;;;;5036866;28;19972;-86
2022/04/26 14:34:47;;;;;;;;;;;13.80;91.70;;;;;;5032458;28;20015;-86
2022/04/26 14:37:14;;;;;;;;;;;13.80;91.30;;;;;;5023730;28;19925;-85
2022/04/26 14:39:40;;;;;;;;;;;13.70;91.90;;;;;;5029073;28;19988;-85
2022/04/26 14:42:08;;;;;;;;;;;13.70;91.10;;;;;;5046212;28;19928;-85
2022/04/26 14:44:34;;;;;;;;;;;13.60;90.70;;;;;;5028374;28;20072;-85
2022/04/26 14:47:02;;;;;;;;;;;13.60;91.70;;;;;;5023697;28;19929;-83
2022/04/26 14:49:28;;;;;;;;;;;13.50;92.10;;;;;;5030858;28;20379;-82
2022/04/26 14:51:55;;;;;;;;;;;13.40;92.20;;;;;;5032498;28;19936;-81
2022/04/26 14:54:21;;;;;;;;;;;13.30;92.00;;;;;;5028994;28;19925;-81
2022/04/26 14:56:48;;;;;;;;;;;13.20;92.40;;;;;;5023563;28;19929;-82
2022/04/26 14:59:15;;;;;;;;;;;13.20;92.80;;;;;;5025933;28;19937;-81
2022/04/26 15:01:46;;;;;;;;;;;13.00;94.20;;;;;;5022118;28;20181;-81
2022/04/26 15:04:12;;;;;;;;;;;13.00;93.90;;;;;;5028913;28;19928;-81
2022/04/26 15:06:39;;;;;;;;;;;13.00;93.00;;;;;;5042710;28;20024;-83
2022/04/26 15:16:37;;;;;;;;;;;13.10;92.90;;;;;;5024931;28;19929;-82
2022/04/26 15:17:21;;;;;;;;;;;13.00;92.40;;;;;;5027111;28;19926;-81
2022/04/26 15:19:48;;;;;;;;;;;13.00;93.10;;;;;;5026427;28;19932;-82
2022/04/26 15:22:17;;;;;;;;;;;13.00;91.60;;;;;;5025149;28;19928;-81
2022/04/26 15:24:43;;;;;;;;;;;12.90;92.00;;;;;;5030398;28;19978;-80
2022/04/26 15:27:10;;;;;;;;;;;12.90;91.50;;;;;;5025305;28;19940;-82
2022/04/26 15:29:37;;;;;;;;;;;12.90;91.90;;;;;;5035670;28;19968;-83
2022/04/26 15:32:03;;;;;;;;;;;12.80;91.50;;;;;;5027946;28;19932;-82
2022/04/26 15:34:30;;;;;;;;;;;12.90;91.60;;;;;;5026484;28;19935;-83
2022/04/26 15:36:56;;;;;;;;;;;13.00;91.20;;;;;;5051789;28;19928;-85
2022/04/26 15:39:23;;;;;;;;;;;13.00;91.10;;;;;;5031745;28;19929;-80
2022/04/26 15:41:52;;;;;;;;;;;12.80;91.30;;;;;;5027216;28;19928;-81
2022/04/26 15:44:19;;;;;;;;;;;12.90;91.30;;;;;;5044139;28;20011;-82
2022/04/26 15:46:47;;;;;;;;;;;13.00;92.20;;;;;;5028956;28;19937;-82
2022/04/26 15:49:13;;;;;;;;;;;13.10;91.00;;;;;;5036545;28;19935;-82
2022/04/26 15:51:40;;;;;;;;;;;13.00;90.20;;;;;;5030312;28;19925;-83
2022/04/26 15:54:07;;;;;;;;;;;13.00;90.10;;;;;;5030934;28;19924;-82
2022/04/26 15:56:33;;;;;;;;;;;12.90;90.20;;;;;;5022433;28;19930;-82
2022/04/26 15:59:00;;;;;;;;;;;12.80;90.30;;;;;;5022445;28;20020;-82
2022/04/26 16:01:27;;;;;;;;;;;12.70;90.40;;;;;;5020567;28;19929;-82
2022/04/26 16:03:54;;;;;;;;;;;12.60;91.00;;;;;;5021193;28;20326;-81
2022/04/26 16:06:20;;;;;;;;;;;12.50;91.40;;;;;;5025264;28;19929;-81
2022/04/26 16:08:47;;;;;;;;;;;12.40;91.20;;;;;;5033842;28;19931;-83
2022/04/26 16:22:22;;;;;;;;;;;12.30;92.10;;;;;;4962677;28;19930;-79
2022/04/26 16:24:48;;;;;;;;;;;12.20;92.20;;;;;;5009511;28;19936;-80
2022/04/26 16:27:15;;;;;;;;;;;12.10;92.30;;;;;;5019207;28;19939;-81
2022/04/26 16:29:42;;;;;;;;;;;12.10;91.70;;;;;;5015565;28;19929;-80
2022/04/26 16:32:08;;;;;;;;;;;12.00;91.80;;;;;;5038068;28;20454;-83
2022/04/26 16:34:36;;;;;;;;;;;11.90;92.00;;;;;;5029834;28;19936;-81
2022/04/26 16:37:02;;;;;;;;;;;11.80;91.60;;;;;;5037794;28;19948;-81
2022/04/26 16:39:29;;;;;;;;;;;11.90;91.20;;;;;;5026591;28;20013;-81
2022/04/26 16:41:55;;;;;;;;;;;11.70;92.20;;;;;;5029940;28;19928;-81
2022/04/26 16:44:23;;;;;;;;;;;11.70;92.90;;;;;;5034524;28;20556;-81
2022/04/26 16:46:50;;;;;;;;;;;11.70;93.20;;;;;;5021111;28;19931;-81
2022/04/26 16:49:16;;;;;;;;;;;11.70;92.50;;;;;;5027467;28;19976;-80
2022/04/26 16:51:43;;;;;;;;;;;11.60;93.60;;;;;;5027068;28;19944;-82
2022/04/26 16:54:11;;;;;;;;;;;11.60;93.30;;;;;;5049644;28;19944;-82
2022/04/26 16:56:38;;;;;;;;;;;11.60;93.30;;;;;;5027352;28;20283;-81
2022/04/26 16:59:04;;;;;;;;;;;11.60;94.20;;;;;;5023336;28;19936;-79
2022/04/26 17:01:31;;;;;;;;;;;11.50;94.40;;;;;;5036669;28;20276;-80
2022/04/26 17:03:58;;;;;;;;;;;11.50;93.60;;;;;;5028475;28;19929;-81
2022/04/26 17:06:24;;;;;;;;;;;11.60;93.10;;;;;;5023798;28;20022;-80
2022/04/26 17:08:51;;;;;;;;;;;11.50;94.50;;;;;;5034054;28;19929;-80
2022/04/26 17:14:02;;;;;;;;;;;11.40;95.90;;;;;;5019225;28;20082;-79
2022/04/26 17:16:28;;;;;;;;;;;11.40;96.10;;;;;;5028907;28;20513;-80
2022/04/26 17:18:55;;;;;;;;;;;11.40;96.20;;;;;;5029463;28;19928;-83
2022/04/26 17:21:22;;;;;;;;;;;11.20;96.40;;;;;;5028530;28;20015;-80
2022/04/26 17:23:48;;;;;;;;;;;11.20;96.60;;;;;;5025229;28;19980;-80
2022/04/26 17:26:17;;;;;;;;;;;11.00;97.10;;;;;;5030627;28;19929;-80
2022/04/26 17:28:43;;;;;;;;;;;11.00;97.20;;;;;;5035675;28;20346;-85
2022/04/26 17:31:10;;;;;;;;;;;11.00;97.20;;;;;;5026151;28;19928;-83
2022/04/26 17:33:40;;;;;;;;;;;10.90;97.60;;;;;;5020258;28;20379;-80
2022/04/26 17:36:06;;;;;;;;;;;10.90;97.70;;;;;;5030697;28;19933;-79
2022/04/26 17:38:33;;;;;;;;;;;10.80;97.70;;;;;;5022769;28;19933;-80
2022/04/26 17:41:00;;;;;;;;;;;10.80;98.60;;;;;;5021666;28;19932;-80
2022/04/26 17:43:26;;;;;;;;;;;10.70;98.50;;;;;;5048853;28;19929;-82
2022/04/26 17:45:53;;;;;;;;;;;10.70;98.30;;;;;;5031423;28;19990;-80
2022/04/26 17:48:20;;;;;;;;;;;10.70;98.50;;;;;;5022551;28;20378;-80
2022/04/26 17:50:46;;;;;;;;;;;10.70;98.70;;;;;;5021840;28;19937;-81
2022/04/26 17:58:41;;;;;;;;;;;10.70;99.50;;;;;;5030886;28;19928;-81
2022/04/26 18:01:08;;;;;;;;;;;10.60;99.90;;;;;;5022890;28;19929;-80
2022/04/26 18:03:35;;;;;;;;;;;10.70;99.90;;;;;;5017611;28;19933;-80
2022/04/26 18:06:02;;;;;;;;;;;10.60;99.90;;;;;;5028568;28;19975;-80
2022/04/26 18:08:28;;;;;;;;;;;10.60;99.90;;;;;;5023637;28;19929;-79
2022/04/26 18:10:55;;;;;;;;;;;10.70;99.90;;;;;;5024387;28;19944;-79
2022/04/26 18:13:22;;;;;;;;;;;10.50;99.90;;;;;;5030234;28;19936;-79
2022/04/26 18:15:54;;;;;;;;;;;10.50;99.90;;;;;;5027233;28;20712;-80
2022/04/26 18:18:21;;;;;;;;;;;10.40;99.90;;;;;;5023910;28;19932;-80
2022/04/26 18:20:47;;;;;;;;;;;10.40;99.90;;;;;;5029281;28;19928;-79
2022/04/26 18:23:14;;;;;;;;;;;10.30;99.90;;;;;;5027000;28;19940;-84
2022/04/26 18:28:25;;;;;;;;;;;10.20;99.90;;;;;;5030457;28;20022;-79
2022/04/26 18:30:52;;;;;;;;;;;10.10;99.90;;;;;;5030057;28;19928;-79
2022/04/26 18:33:18;;;;;;;;;;;10.10;99.90;;;;;;5029562;28;19936;-79
2022/04/26 18:35:45;;;;;;;;;;;10.10;99.90;;;;;;5018656;28;19939;-79
2022/04/26 18:38:13;;;;;;;;;;;10.00;99.90;;;;;;5036523;28;19935;-80
2022/04/26 18:40:39;;;;;;;;;;;9.90;99.90;;;;;;5031175;28;20470;-80
2022/04/26 18:43:06;;;;;;;;;;;9.90;99.90;;;;;;5031112;28;19924;-82
2022/04/26 18:45:33;;;;;;;;;;;9.80;99.90;;;;;;5029158;28;20374;-81
2022/04/26 18:47:59;;;;;;;;;;;9.70;99.90;;;;;;5030174;28;19986;-80
2022/04/26 18:50:26;;;;;;;;;;;9.70;99.90;;;;;;5029726;28;19929;-81
2022/04/26 18:52:53;;;;;;;;;;;9.70;99.90;;;;;;5028456;28;19933;-79